Time;durP1;ratioP1;P1;durP2;ratioP2;P2;SDS_P1;SDS_P2;PMS_P1;PMS_P2;Temp;Humidity;BMP_temperature;BMP_pressure;BME280_temperature;BME280_humidity;BME280_pressure;Samples;Min_cycle;Max_cycle;Signal;HPM_P1;HPM_P2
2023/06/16 00:01:13;;;;;;;8.27;5.95;;;;;;;;;;4372669;32;415786;-77
2023/06/16 00:03:41;;;;;;;7.15;5.35;;;;;;;;;;4385744;32;316673;-77
2023/06/16 00:06:13;;;;;;;9.25;6.00;;;;;;;;;;4372992;32;416479;-77
2023/06/16 00:08:44;;;;;;;10.38;6.07;;;;;;;;;;4385850;32;316889;-77
2023/06/16 00:11:12;;;;;;;9.05;6.32;;;;;;;;;;4373222;32;417204;-77
2023/06/16 00:13:40;;;;;;;11.90;5.62;;;;;;;;;;4385674;32;316660;-77
2023/06/16 00:16:09;;;;;;;13.77;5.65;;;;;;;;;;4375681;32;317669;-77
2023/06/16 00:18:36;;;;;;;7.87;6.05;;;;;;;;;;4383409;32;317569;-83
2023/06/16 00:21:09;;;;;;;10.23;5.72;;;;;;;;;;4374744;32;328580;-77
2023/06/16 00:23:36;;;;;;;8.60;5.95;;;;;;;;;;4386106;32;317717;-79
2023/06/16 00:26:05;;;;;;;8.75;5.87;;;;;;;;;;4379065;32;317143;-78
2023/06/16 00:28:32;;;;;;;10.23;5.97;;;;;;;;;;4386556;32;316988;-77
2023/06/16 00:31:00;;;;;;;12.23;6.65;;;;;;;;;;4378475;32;317659;-86
2023/06/16 00:33:27;;;;;;;11.23;5.82;;;;;;;;;;4386122;32;317646;-77
2023/06/16 00:35:54;;;;;;;9.27;6.00;;;;;;;;;;4378891;32;317880;-77
2023/06/16 00:38:21;;;;;;;8.32;5.97;;;;;;;;;;4388484;32;316708;-78
2023/06/16 00:40:49;;;;;;;6.80;5.78;;;;;;;;;;4377517;32;316988;-79
2023/06/16 00:43:18;;;;;;;6.70;6.00;;;;;;;;;;4387856;32;317163;-78
2023/06/16 00:45:45;;;;;;;11.70;6.45;;;;;;;;;;4373625;32;316836;-80
2023/06/16 00:48:13;;;;;;;7.90;5.62;;;;;;;;;;4388691;32;317687;-77
2023/06/16 00:50:41;;;;;;;14.38;6.62;;;;;;;;;;4387156;32;316615;-77
2023/06/16 00:53:08;;;;;;;12.48;6.43;;;;;;;;;;4373364;32;416767;-79
2023/06/16 00:55:36;;;;;;;8.48;6.35;;;;;;;;;;4386881;32;341754;-78
2023/06/16 00:58:04;;;;;;;9.35;6.03;;;;;;;;;;4377162;32;329169;-81
2023/06/16 01:00:35;;;;;;;9.65;6.32;;;;;;;;;;4387747;32;317049;-77
2023/06/16 01:03:04;;;;;;;8.65;5.72;;;;;;;;;;4375772;32;316762;-84
2023/06/16 01:05:31;;;;;;;8.93;6.07;;;;;;;;;;4386021;32;316956;-77
2023/06/16 01:08:09;;;;;;;11.38;7.18;;;;;;;;;;4378180;32;316674;-77
2023/06/16 01:10:44;;;;;;;7.18;6.15;;;;;;;;;;4388315;32;317844;-77
2023/06/16 01:13:22;;;;;;;14.13;7.55;;;;;;;;;;4375550;32;416172;-81
2023/06/16 01:15:52;;;;;;;13.68;6.20;;;;;;;;;;4377052;32;317853;-77
2023/06/16 01:18:23;;;;;;;8.60;6.03;;;;;;;;;;4387507;32;317741;-78
2023/06/16 01:20:55;;;;;;;9.07;6.95;;;;;;;;;;4377139;32;316727;-78
2023/06/16 01:23:34;;;;;;;9.80;6.32;;;;;;;;;;4387790;32;316671;-77
2023/06/16 01:26:05;;;;;;;15.52;7.35;;;;;;;;;;4375769;32;316910;-78
2023/06/16 01:28:34;;;;;;;7.62;6.25;;;;;;;;;;4387619;32;317839;-78
2023/06/16 01:31:02;;;;;;;7.78;6.30;;;;;;;;;;4375656;32;317072;-77
2023/06/16 01:33:32;;;;;;;8.15;5.90;;;;;;;;;;4385970;32;316958;-79
2023/06/16 01:36:00;;;;;;;11.57;7.10;;;;;;;;;;4377887;32;316984;-82
2023/06/16 01:38:28;;;;;;;7.80;5.85;;;;;;;;;;4387772;32;316675;-77
2023/06/16 01:40:57;;;;;;;7.22;5.72;;;;;;;;;;4377950;32;316817;-85
2023/06/16 01:43:26;;;;;;;11.70;6.05;;;;;;;;;;4385260;32;316807;-80
2023/06/16 01:45:53;;;;;;;7.22;6.25;;;;;;;;;;4376356;32;318305;-77
2023/06/16 01:48:22;;;;;;;9.88;6.12;;;;;;;;;;4387455;32;316661;-77
2023/06/16 01:50:50;;;;;;;9.15;6.57;;;;;;;;;;4376331;32;317126;-78
2023/06/16 01:53:17;;;;;;;14.23;6.30;;;;;;;;;;4385305;32;316830;-77
2023/06/16 01:55:48;;;;;;;10.88;6.95;;;;;;;;;;4376683;32;317922;-78
2023/06/16 01:58:16;;;;;;;10.15;6.10;;;;;;;;;;4385552;32;317829;-78
2023/06/16 02:00:51;;;;;;;13.73;7.87;;;;;;;;;;4373089;32;329388;-79
2023/06/16 02:03:27;;;;;;;18.55;7.82;;;;;;;;;;4384865;32;350457;-77
2023/06/16 02:05:55;;;;;;;8.93;6.75;;;;;;;;;;4376512;32;318182;-77
2023/06/16 02:08:26;;;;;;;11.25;7.53;;;;;;;;;;4387664;32;317581;-81
2023/06/16 02:10:53;;;;;;;11.15;8.00;;;;;;;;;;4375577;32;334694;-78
2023/06/16 02:13:21;;;;;;;18.17;7.93;;;;;;;;;;4387180;32;317772;-77
2023/06/16 02:15:50;;;;;;;14.00;8.23;;;;;;;;;;4377175;32;317998;-78
2023/06/16 02:18:27;;;;;;;13.15;8.13;;;;;;;;;;4386779;32;317677;-83
2023/06/16 02:20:55;;;;;;;14.32;8.45;;;;;;;;;;4376526;32;317673;-77
2023/06/16 02:23:23;;;;;;;9.38;7.43;;;;;;;;;;4386715;32;317843;-78
2023/06/16 02:25:50;;;;;;;15.00;7.90;;;;;;;;;;4374267;32;316665;-82
2023/06/16 02:28:18;;;;;;;11.07;7.97;;;;;;;;;;4386207;32;317637;-77
2023/06/16 02:30:45;;;;;;;11.82;7.50;;;;;;;;;;4375563;32;318129;-77
2023/06/16 02:33:15;;;;;;;14.05;7.80;;;;;;;;;;4386211;32;317685;-85
2023/06/16 02:35:42;;;;;;;7.72;7.03;;;;;;;;;;4384133;32;317703;-84
2023/06/16 02:38:10;;;;;;;9.55;7.75;;;;;;;;;;4373765;32;416478;-78
2023/06/16 02:40:38;;;;;;;16.30;7.45;;;;;;;;;;4386061;32;344771;-79
2023/06/16 02:43:05;;;;;;;9.45;7.15;;;;;;;;;;4376726;32;317714;-79
2023/06/16 02:45:33;;;;;;;13.35;7.30;;;;;;;;;;4387166;32;316731;-79
2023/06/16 02:48:00;;;;;;;8.82;7.95;;;;;;;;;;4374189;32;317776;-81
2023/06/16 02:50:30;;;;;;;11.32;8.00;;;;;;;;;;4386756;32;316705;-81
2023/06/16 02:52:58;;;;;;;10.20;7.77;;;;;;;;;;4374685;32;318618;-81
2023/06/16 02:55:25;;;;;;;16.25;7.87;;;;;;;;;;4385371;32;317805;-81
2023/06/16 02:57:52;;;;;;;9.82;8.55;;;;;;;;;;4376685;32;317877;-81
2023/06/16 03:00:20;;;;;;;11.65;7.95;;;;;;;;;;4387170;32;316973;-81
2023/06/16 03:02:48;;;;;;;14.63;7.20;;;;;;;;;;4376212;32;318004;-81
2023/06/16 03:05:18;;;;;;;10.32;7.05;;;;;;;;;;4386582;32;327414;-81
2023/06/16 03:07:46;;;;;;;14.30;7.15;;;;;;;;;;4376008;32;317876;-81
2023/06/16 03:10:14;;;;;;;19.37;7.43;;;;;;;;;;4386788;32;317785;-81
2023/06/16 03:12:41;;;;;;;17.27;7.00;;;;;;;;;;4385710;32;318023;-81
2023/06/16 03:15:09;;;;;;;15.13;9.00;;;;;;;;;;4371670;32;418888;-77
2023/06/16 03:17:37;;;;;;;18.33;8.57;;;;;;;;;;4386197;32;317680;-77
2023/06/16 03:20:07;;;;;;;16.27;9.00;;;;;;;;;;4375549;32;317938;-77
2023/06/16 03:22:34;;;;;;;18.73;8.70;;;;;;;;;;4385118;32;318022;-77
2023/06/16 03:25:03;;;;;;;15.73;8.95;;;;;;;;;;4375185;32;318064;-80
2023/06/16 03:27:31;;;;;;;22.30;9.00;;;;;;;;;;4385835;32;318123;-77
2023/06/16 03:29:58;;;;;;;9.95;7.65;;;;;;;;;;4374900;32;331753;-81
2023/06/16 03:32:27;;;;;;;13.30;7.53;;;;;;;;;;4386475;32;316766;-77
2023/06/16 03:34:55;;;;;;;10.50;7.33;;;;;;;;;;4371791;32;357961;-77
2023/06/16 03:37:22;;;;;;;14.10;8.95;;;;;;;;;;4386402;32;317913;-77
2023/06/16 03:39:49;;;;;;;11.57;7.85;;;;;;;;;;4374744;32;317930;-77
2023/06/16 03:42:18;;;;;;;9.82;7.53;;;;;;;;;;4386122;32;317602;-81
2023/06/16 03:44:46;;;;;;;13.55;7.97;;;;;;;;;;4375596;32;316852;-77
2023/06/16 03:47:13;;;;;;;10.20;9.13;;;;;;;;;;4384810;32;335058;-77
2023/06/16 03:49:41;;;;;;;15.85;9.00;;;;;;;;;;4384256;32;317839;-82
2023/06/16 03:52:09;;;;;;;11.38;8.25;;;;;;;;;;4373599;32;330719;-77
2023/06/16 03:54:37;;;;;;;16.95;8.02;;;;;;;;;;4383814;32;350578;-78
2023/06/16 03:57:05;;;;;;;14.38;8.30;;;;;;;;;;4375400;32;317794;-77
2023/06/16 03:59:35;;;;;;;12.98;7.60;;;;;;;;;;4385780;32;317874;-77
2023/06/16 04:02:07;;;;;;;21.35;8.05;;;;;;;;;;4374942;32;336564;-79
2023/06/16 04:04:34;;;;;;;9.60;7.20;;;;;;;;;;4384381;32;356326;-77
2023/06/16 04:07:02;;;;;;;12.45;7.82;;;;;;;;;;4375887;32;316638;-86
2023/06/16 04:09:29;;;;;;;12.23;8.10;;;;;;;;;;4384895;32;347864;-77
2023/06/16 04:11:57;;;;;;;10.10;7.70;;;;;;;;;;4375199;32;317703;-77
2023/06/16 04:14:24;;;;;;;10.63;7.45;;;;;;;;;;4384163;32;318101;-78
2023/06/16 04:16:53;;;;;;;10.73;7.30;;;;;;;;;;4375913;32;317908;-78
2023/06/16 04:19:20;;;;;;;12.35;7.85;;;;;;;;;;4385293;32;317650;-78
2023/06/16 04:21:48;;;;;;;13.77;7.97;;;;;;;;;;4374570;32;318051;-78
2023/06/16 04:24:15;;;;;;;12.68;8.23;;;;;;;;;;4383671;32;317587;-77
2023/06/16 04:26:43;;;;;;;11.30;9.27;;;;;;;;;;4385667;32;317930;-77
2023/06/16 04:29:14;;;;;;;11.70;8.23;;;;;;;;;;4370588;32;420153;-77
2023/06/16 04:31:42;;;;;;;9.75;8.18;;;;;;;;;;4383984;32;317852;-84
2023/06/16 04:34:11;;;;;;;10.07;8.27;;;;;;;;;;4371171;32;416524;-77
2023/06/16 04:36:41;;;;;;;10.57;9.40;;;;;;;;;;4384242;32;317689;-77
2023/06/16 04:39:09;;;;;;;15.38;8.88;;;;;;;;;;4371554;32;418053;-77
2023/06/16 04:41:36;;;;;;;14.95;8.30;;;;;;;;;;4385630;32;317777;-78
2023/06/16 04:44:04;;;;;;;19.80;10.48;;;;;;;;;;4374242;32;318051;-79
2023/06/16 04:46:31;;;;;;;14.48;9.25;;;;;;;;;;4385535;32;318842;-78
2023/06/16 04:48:58;;;;;;;15.48;9.02;;;;;;;;;;4374825;32;317822;-78
2023/06/16 04:51:28;;;;;;;14.48;9.15;;;;;;;;;;4385470;32;317865;-77
2023/06/16 04:53:56;;;;;;;15.13;9.17;;;;;;;;;;4374530;32;317842;-82
2023/06/16 04:56:24;;;;;;;17.12;9.50;;;;;;;;;;4385696;32;317929;-80
2023/06/16 04:58:51;;;;;;;15.88;10.13;;;;;;;;;;4375296;32;317943;-80
2023/06/16 05:01:18;;;;;;;18.95;9.77;;;;;;;;;;4384751;32;318744;-80
2023/06/16 05:03:46;;;;;;;17.60;10.55;;;;;;;;;;4374986;32;317708;-80
2023/06/16 05:06:13;;;;;;;13.93;9.40;;;;;;;;;;4385649;32;317662;-80
2023/06/16 05:08:42;;;;;;;14.80;10.40;;;;;;;;;;4383566;32;318030;-80
2023/06/16 05:11:09;;;;;;;16.30;9.20;;;;;;;;;;4374517;32;417896;-80
2023/06/16 05:13:37;;;;;;;13.05;10.13;;;;;;;;;;4388241;32;318037;-81
2023/06/16 05:16:05;;;;;;;10.98;9.10;;;;;;;;;;4377422;32;319067;-81
2023/06/16 05:18:32;;;;;;;16.33;10.43;;;;;;;;;;4386303;32;317980;-81
2023/06/16 05:21:00;;;;;;;11.63;9.48;;;;;;;;;;4377641;32;318873;-81
2023/06/16 05:23:27;;;;;;;11.23;8.57;;;;;;;;;;4386557;32;347600;-81
2023/06/16 05:25:56;;;;;;;10.70;8.85;;;;;;;;;;4377229;32;318034;-81
2023/06/16 05:28:23;;;;;;;12.45;9.23;;;;;;;;;;4386545;32;317872;-80
2023/06/16 05:30:51;;;;;;;11.20;8.95;;;;;;;;;;4378031;32;317667;-78
2023/06/16 05:33:18;;;;;;;13.55;8.93;;;;;;;;;;4388079;32;317867;-78
2023/06/16 05:35:45;;;;;;;10.60;9.45;;;;;;;;;;4375126;32;356235;-80
2023/06/16 05:38:13;;;;;;;13.90;9.45;;;;;;;;;;4387705;32;318045;-79
2023/06/16 05:40:40;;;;;;;10.50;9.48;;;;;;;;;;4388087;32;317814;-79
2023/06/16 05:43:09;;;;;;;16.58;10.98;;;;;;;;;;4374509;32;317763;-79
2023/06/16 05:45:37;;;;;;;13.73;10.93;;;;;;;;;;4388136;32;318897;-79
2023/06/16 05:48:04;;;;;;;13.23;10.00;;;;;;;;;;4377389;32;318875;-78
2023/06/16 05:50:31;;;;;;;12.63;9.75;;;;;;;;;;4385155;32;318889;-79
2023/06/16 05:52:59;;;;;;;16.87;10.32;;;;;;;;;;4377340;32;318072;-77
2023/06/16 05:55:26;;;;;;;11.68;10.43;;;;;;;;;;4387995;32;318817;-76
2023/06/16 05:57:54;;;;;;;14.45;9.20;;;;;;;;;;4377084;32;319251;-76
2023/06/16 06:00:22;;;;;;;8.52;7.57;;;;;;;;;;4387504;32;317890;-76
2023/06/16 06:02:50;;;;;;;12.07;7.95;;;;;;;;;;4377606;32;316803;-77
2023/06/16 06:05:17;;;;;;;11.05;8.57;;;;;;;;;;4387166;32;317720;-76
2023/06/16 06:07:44;;;;;;;13.00;7.55;;;;;;;;;;4375412;32;317872;-77
2023/06/16 06:10:12;;;;;;;8.20;6.32;;;;;;;;;;4387370;32;317822;-76
2023/06/16 06:12:39;;;;;;;9.55;6.28;;;;;;;;;;4387701;32;316878;-76
2023/06/16 06:15:07;;;;;;;7.15;5.62;;;;;;;;;;4375674;32;316758;-82
2023/06/16 06:17:36;;;;;;;7.00;6.15;;;;;;;;;;4385818;32;316796;-80
2023/06/16 06:20:04;;;;;;;9.18;6.93;;;;;;;;;;4373992;32;316986;-80
2023/06/16 06:22:32;;;;;;;7.40;6.62;;;;;;;;;;4385879;32;335624;-79
2023/06/16 06:25:00;;;;;;;7.35;6.65;;;;;;;;;;4376154;32;317049;-84
2023/06/16 06:27:27;;;;;;;14.63;7.75;;;;;;;;;;4386607;32;316663;-83
2023/06/16 06:29:55;;;;;;;10.68;6.95;;;;;;;;;;4375901;32;317807;-84
2023/06/16 06:32:22;;;;;;;17.52;7.62;;;;;;;;;;4386732;32;317912;-84
2023/06/16 06:34:51;;;;;;;8.43;7.32;;;;;;;;;;4375132;32;318330;-84
2023/06/16 06:37:18;;;;;;;12.55;7.87;;;;;;;;;;4386229;32;343645;-84
2023/06/16 06:39:46;;;;;;;11.30;9.00;;;;;;;;;;4375937;32;318218;-85
2023/06/16 06:49:37;;;;;;;10.48;9.45;;;;;;;;;;4374187;32;388414;-85
2023/06/16 06:52:07;;;;;;;16.33;8.13;;;;;;;;;;4377392;32;317597;-85
2023/06/16 06:54:35;;;;;;;12.90;8.73;;;;;;;;;;4385982;32;317764;-85
2023/06/16 06:57:02;;;;;;;10.40;8.45;;;;;;;;;;4376763;32;317790;-85
2023/06/16 06:59:29;;;;;;;9.05;7.62;;;;;;;;;;4386151;32;317736;-85
2023/06/16 07:01:57;;;;;;;9.48;8.57;;;;;;;;;;4374492;32;317114;-85
2023/06/16 07:04:24;;;;;;;11.20;9.48;;;;;;;;;;4386851;32;315449;-85
2023/06/16 07:06:51;;;;;;;9.07;8.18;;;;;;;;;;4374434;32;317726;-84
2023/06/16 07:09:20;;;;;;;15.40;7.93;;;;;;;;;;4387169;32;316445;-86
2023/06/16 07:11:48;;;;;;;9.88;8.65;;;;;;;;;;4375125;32;317772;-86
2023/06/16 07:14:15;;;;;;;12.18;8.80;;;;;;;;;;4386851;32;316722;-85
2023/06/16 07:16:42;;;;;;;12.20;7.87;;;;;;;;;;4384671;32;317957;-85
2023/06/16 07:19:10;;;;;;;12.75;9.82;;;;;;;;;;4373931;32;417025;-83
2023/06/16 07:21:38;;;;;;;9.75;8.70;;;;;;;;;;4386034;32;317712;-85
2023/06/16 07:24:06;;;;;;;10.27;8.07;;;;;;;;;;4374663;32;316742;-83
2023/06/16 07:26:37;;;;;;;22.85;8.73;;;;;;;;;;4384186;32;317755;-83
2023/06/16 07:29:04;;;;;;;11.60;8.25;;;;;;;;;;4375313;32;317770;-83
2023/06/16 07:31:32;;;;;;;8.90;7.68;;;;;;;;;;4385231;32;318145;-83
2023/06/16 07:33:59;;;;;;;15.32;8.07;;;;;;;;;;4376100;32;316734;-84
2023/06/16 07:36:27;;;;;;;12.80;8.90;;;;;;;;;;4384903;32;317777;-84
2023/06/16 07:38:54;;;;;;;10.75;8.15;;;;;;;;;;4379613;32;317679;-84
2023/06/16 07:41:21;;;;;;;10.57;8.93;;;;;;;;;;4387659;32;318031;-84
2023/06/16 07:43:50;;;;;;;10.73;9.60;;;;;;;;;;4377494;32;317780;-84
2023/06/16 07:46:18;;;;;;;11.57;9.63;;;;;;;;;;4383342;32;317808;-84
2023/06/16 07:48:46;;;;;;;10.80;8.13;;;;;;;;;;4374381;32;318411;-84
2023/06/16 07:51:14;;;;;;;12.02;8.35;;;;;;;;;;4385259;32;317767;-84
2023/06/16 07:53:42;;;;;;;13.13;8.18;;;;;;;;;;4384550;32;318550;-84
2023/06/16 07:56:09;;;;;;;10.48;7.22;;;;;;;;;;4372587;32;387791;-84
2023/06/16 07:58:38;;;;;;;12.93;8.73;;;;;;;;;;4384180;32;318086;-84
2023/06/16 08:01:07;;;;;;;9.82;7.82;;;;;;;;;;4375154;32;317884;-84
2023/06/16 08:03:35;;;;;;;11.88;8.57;;;;;;;;;;4386382;32;316636;-84
2023/06/16 08:06:05;;;;;;;10.23;7.25;;;;;;;;;;4375926;32;317994;-84
2023/06/16 08:08:33;;;;;;;7.75;6.95;;;;;;;;;;4385357;32;317795;-84
2023/06/16 08:11:00;;;;;;;7.70;6.97;;;;;;;;;;4375719;32;317217;-84
2023/06/16 08:13:28;;;;;;;11.98;7.20;;;;;;;;;;4385272;32;316665;-85
2023/06/16 08:15:56;;;;;;;8.70;7.72;;;;;;;;;;4367690;32;317971;-84
2023/06/16 08:18:25;;;;;;;9.07;8.13;;;;;;;;;;4386258;32;316763;-84
2023/06/16 08:20:53;;;;;;;12.43;8.13;;;;;;;;;;4373683;32;316609;-84
2023/06/16 08:23:20;;;;;;;11.05;8.60;;;;;;;;;;4385744;32;317619;-84
2023/06/16 08:25:49;;;;;;;9.68;8.10;;;;;;;;;;4373575;32;317727;-84
2023/06/16 08:28:16;;;;;;;13.30;8.73;;;;;;;;;;4385832;32;316712;-84
2023/06/16 08:30:43;;;;;;;12.30;7.55;;;;;;;;;;4374276;32;317992;-84
2023/06/16 08:33:11;;;;;;;7.00;5.68;;;;;;;;;;4386355;32;317853;-84
2023/06/16 08:35:40;;;;;;;12.43;6.93;;;;;;;;;;4371095;32;317004;-84
2023/06/16 08:38:07;;;;;;;7.25;6.10;;;;;;;;;;4385045;32;317676;-84
2023/06/16 08:40:35;;;;;;;10.05;5.87;;;;;;;;;;4385999;32;316861;-84
2023/06/16 08:43:07;;;;;;;6.50;4.95;;;;;;;;;;4372382;32;416972;-83
2023/06/16 08:45:36;;;;;;;9.02;6.00;;;;;;;;;;4387909;32;316952;-84
2023/06/16 08:48:04;;;;;;;15.35;5.15;;;;;;;;;;4375315;32;416241;-84
2023/06/16 08:50:32;;;;;;;7.57;5.40;;;;;;;;;;4387738;32;317645;-84
2023/06/16 08:53:06;;;;;;;6.22;5.18;;;;;;;;;;4377360;32;316684;-84
2023/06/16 08:55:35;;;;;;;11.02;6.20;;;;;;;;;;4388721;32;317149;-83
2023/06/16 08:58:03;;;;;;;12.27;5.75;;;;;;;;;;4373739;32;417348;-83
2023/06/16 09:00:32;;;;;;;11.18;5.43;;;;;;;;;;4387716;32;318135;-83
2023/06/16 09:03:01;;;;;;;16.27;5.72;;;;;;;;;;4377011;32;317957;-83
2023/06/16 09:05:30;;;;;;;8.65;5.75;;;;;;;;;;4387152;32;318064;-83
2023/06/16 09:07:58;;;;;;;13.38;6.28;;;;;;;;;;4376922;32;350840;-83
2023/06/16 09:10:27;;;;;;;10.95;6.28;;;;;;;;;;4387348;32;335734;-83
2023/06/16 09:12:59;;;;;;;9.88;6.37;;;;;;;;;;4377359;32;318018;-83
2023/06/16 09:15:27;;;;;;;10.55;6.78;;;;;;;;;;4388757;32;316644;-84
2023/06/16 09:17:56;;;;;;;10.60;6.45;;;;;;;;;;4377546;32;318020;-84
2023/06/16 09:20:24;;;;;;;6.90;6.20;;;;;;;;;;4386803;32;317888;-82
2023/06/16 09:22:59;;;;;;;11.80;6.73;;;;;;;;;;4376094;32;316799;-84
2023/06/16 09:25:28;;;;;;;9.18;6.97;;;;;;;;;;4387767;32;317674;-82
2023/06/16 09:27:56;;;;;;;9.60;6.07;;;;;;;;;;4377539;32;317025;-84
2023/06/16 09:30:33;;;;;;;8.48;5.87;;;;;;;;;;4387340;32;316535;-82
2023/06/16 09:33:01;;;;;;;8.32;5.55;;;;;;;;;;4375126;32;416187;-83
2023/06/16 09:35:29;;;;;;;7.60;5.62;;;;;;;;;;4387396;32;317019;-83
2023/06/16 09:38:00;;;;;;;9.63;5.28;;;;;;;;;;4376465;32;316548;-82
2023/06/16 09:40:31;;;;;;;9.20;5.97;;;;;;;;;;4387938;32;317000;-83
2023/06/16 09:43:01;;;;;;;10.70;5.90;;;;;;;;;;4376645;32;316721;-82
2023/06/16 09:45:31;;;;;;;7.87;5.28;;;;;;;;;;4385854;32;353080;-82
2023/06/16 09:48:02;;;;;;;12.23;6.05;;;;;;;;;;4376969;32;316839;-83
2023/06/16 09:50:31;;;;;;;12.45;5.57;;;;;;;;;;4386521;32;318235;-83
2023/06/16 09:53:01;;;;;;;13.65;6.25;;;;;;;;;;4375638;32;317998;-83
2023/06/16 09:55:32;;;;;;;6.57;5.57;;;;;;;;;;4386726;32;317807;-82
2023/06/16 09:57:59;;;;;;;13.77;6.20;;;;;;;;;;4376608;32;347703;-83
2023/06/16 10:00:26;;;;;;;7.85;5.62;;;;;;;;;;4385946;32;318052;-83
2023/06/16 10:02:56;;;;;;;9.50;5.80;;;;;;;;;;4376626;32;316770;-83
2023/06/16 10:05:25;;;;;;;7.20;5.12;;;;;;;;;;4386965;32;337991;-83
2023/06/16 10:07:56;;;;;;;11.63;6.25;;;;;;;;;;4377967;32;316930;-83
2023/06/16 10:10:27;;;;;;;8.75;5.65;;;;;;;;;;4394919;32;317639;-82
2023/06/16 10:12:57;;;;;;;7.25;5.82;;;;;;;;;;4387345;32;316799;-81
2023/06/16 10:15:26;;;;;;;9.63;5.57;;;;;;;;;;4390839;32;316628;-82
2023/06/16 10:17:57;;;;;;;12.57;6.72;;;;;;;;;;4375863;32;316970;-83
2023/06/16 10:20:26;;;;;;;7.47;5.90;;;;;;;;;;4386372;32;318286;-86
2023/06/16 10:22:55;;;;;;;7.32;6.03;;;;;;;;;;4375546;32;316817;-83
2023/06/16 10:25:23;;;;;;;7.37;6.22;;;;;;;;;;4386958;32;317950;-83
2023/06/16 10:27:51;;;;;;;16.98;5.87;;;;;;;;;;4376418;32;317231;-84
2023/06/16 10:30:22;;;;;;;11.02;7.03;;;;;;;;;;4386644;32;318092;-83
2023/06/16 10:32:52;;;;;;;15.70;7.40;;;;;;;;;;4377245;32;318008;-83
2023/06/16 10:35:21;;;;;;;13.20;7.53;;;;;;;;;;4387039;32;318030;-83
2023/06/16 10:37:51;;;;;;;9.60;6.40;;;;;;;;;;4376422;32;317756;-84
2023/06/16 10:40:21;;;;;;;12.70;6.20;;;;;;;;;;4386591;32;317685;-84
2023/06/16 10:42:49;;;;;;;9.48;6.72;;;;;;;;;;4375018;32;317769;-83
2023/06/16 10:45:26;;;;;;;10.38;7.22;;;;;;;;;;4383748;32;317259;-83
2023/06/16 10:47:57;;;;;;;11.35;6.47;;;;;;;;;;4375289;32;317955;-83
2023/06/16 10:50:32;;;;;;;9.07;6.95;;;;;;;;;;4387369;32;318333;-83
2023/06/16 10:53:11;;;;;;;9.02;7.35;;;;;;;;;;4375846;32;316984;-83
2023/06/16 10:55:41;;;;;;;9.10;7.53;;;;;;;;;;4376734;32;317061;-83
2023/06/16 10:58:26;;;;;;;10.57;7.85;;;;;;;;;;4386724;32;316812;-84
2023/06/16 11:01:29;;;;;;;10.30;7.85;;;;;;;;;;4374760;32;318028;-84
2023/06/16 11:04:04;;;;;;;12.10;7.72;;;;;;;;;;4327269;32;318153;-83
2023/06/16 11:07:13;;;;;;;10.27;7.45;;;;;;;;;;4338652;32;317913;-83
2023/06/16 11:09:41;;;;;;;9.23;7.47;;;;;;;;;;4337415;32;417646;-83
2023/06/16 11:12:09;;;;;;;10.23;7.25;;;;;;;;;;4385989;32;316852;-83
2023/06/16 11:14:37;;;;;;;11.00;8.10;;;;;;;;;;4374728;32;377173;-83
2023/06/16 11:17:07;;;;;;;12.20;7.57;;;;;;;;;;4385944;32;317840;-83
2023/06/16 11:19:38;;;;;;;15.77;7.62;;;;;;;;;;4385654;32;317916;-83
2023/06/16 11:22:06;;;;;;;14.95;8.15;;;;;;;;;;4373983;32;417950;-83
2023/06/16 11:24:35;;;;;;;8.43;7.57;;;;;;;;;;4386287;32;318008;-83
2023/06/16 11:27:03;;;;;;;10.70;7.45;;;;;;;;;;4371931;32;415824;-83
2023/06/16 11:29:30;;;;;;;11.63;7.87;;;;;;;;;;4385739;32;346779;-83
2023/06/16 11:31:59;;;;;;;10.00;7.72;;;;;;;;;;4374964;32;318493;-84
2023/06/16 11:34:28;;;;;;;9.82;7.35;;;;;;;;;;4385651;32;356494;-84
2023/06/16 11:36:56;;;;;;;14.75;8.95;;;;;;;;;;4374859;32;317280;-84
2023/06/16 11:39:23;;;;;;;13.98;7.62;;;;;;;;;;4385106;32;338102;-84
2023/06/16 11:41:56;;;;;;;9.40;7.90;;;;;;;;;;4374675;32;318251;-83
2023/06/16 11:44:23;;;;;;;13.18;9.02;;;;;;;;;;4386529;32;316795;-84
2023/06/16 11:46:51;;;;;;;10.20;8.32;;;;;;;;;;4374744;32;317793;-84
2023/06/16 11:49:53;;;;;;;12.88;8.52;;;;;;;;;;4386304;32;318190;-83
2023/06/16 11:52:21;;;;;;;15.13;9.10;;;;;;;;;;4371673;32;418572;-84
2023/06/16 11:54:49;;;;;;;13.15;7.97;;;;;;;;;;4375161;32;318245;-84
2023/06/16 11:57:16;;;;;;;16.02;9.32;;;;;;;;;;4386283;32;317823;-84
2023/06/16 11:59:46;;;;;;;15.60;9.18;;;;;;;;;;4374446;32;318363;-85
2023/06/16 12:02:14;;;;;;;13.95;9.20;;;;;;;;;;4384817;32;316864;-86
2023/06/16 12:04:42;;;;;;;13.13;8.60;;;;;;;;;;4371199;32;318344;-84
2023/06/16 12:07:11;;;;;;;10.07;8.88;;;;;;;;;;4386123;32;317995;-87
2023/06/16 12:09:39;;;;;;;12.25;8.95;;;;;;;;;;4371027;32;317945;-87
2023/06/16 12:12:10;;;;;;;18.85;8.70;;;;;;;;;;4384837;32;318044;-87
2023/06/16 12:14:37;;;;;;;20.12;9.45;;;;;;;;;;4375515;32;318230;-86
2023/06/16 12:17:06;;;;;;;11.90;9.20;;;;;;;;;;4386266;32;317909;-87
2023/06/16 12:19:35;;;;;;;13.23;8.65;;;;;;;;;;4388489;32;317876;-87
2023/06/16 12:22:03;;;;;;;9.25;8.35;;;;;;;;;;4374987;32;417316;-87
2023/06/16 12:24:32;;;;;;;11.35;8.05;;;;;;;;;;4389253;32;316820;-87
2023/06/16 12:27:00;;;;;;;10.85;9.30;;;;;;;;;;4377779;32;318479;-87
2023/06/16 12:29:28;;;;;;;15.32;9.52;;;;;;;;;;4387668;32;330675;-86
2023/06/16 12:31:58;;;;;;;12.77;9.60;;;;;;;;;;4376167;32;318356;-86
2023/06/16 12:34:26;;;;;;;9.90;8.30;;;;;;;;;;4389292;32;318084;-87
2023/06/16 12:36:55;;;;;;;10.68;9.57;;;;;;;;;;4377847;32;317401;-78
2023/06/16 12:39:22;;;;;;;14.02;10.80;;;;;;;;;;4388945;32;318081;-78
2023/06/16 12:41:58;;;;;;;10.93;9.80;;;;;;;;;;4377636;32;318979;-78
2023/06/16 12:44:40;;;;;;;11.43;8.70;;;;;;;;;;4388423;32;318220;-78
2023/06/16 12:47:08;;;;;;;12.20;9.60;;;;;;;;;;4374735;32;417496;-78
2023/06/16 12:49:35;;;;;;;11.10;9.50;;;;;;;;;;4388801;32;318109;-81
2023/06/16 12:52:03;;;;;;;11.50;9.38;;;;;;;;;;4374703;32;417337;-79
2023/06/16 12:54:30;;;;;;;13.88;8.95;;;;;;;;;;4388681;32;318159;-80
2023/06/16 12:57:00;;;;;;;9.85;8.82;;;;;;;;;;4374779;32;357607;-80
2023/06/16 12:59:28;;;;;;;16.65;8.55;;;;;;;;;;4388461;32;316900;-78
2023/06/16 13:01:56;;;;;;;9.55;8.48;;;;;;;;;;4377211;32;317927;-84
2023/06/16 13:04:23;;;;;;;21.08;9.25;;;;;;;;;;4388603;32;317019;-78
2023/06/16 13:06:50;;;;;;;10.95;9.27;;;;;;;;;;4377436;32;348384;-80
2023/06/16 13:09:20;;;;;;;14.05;10.30;;;;;;;;;;4385439;32;317958;-78
2023/06/16 13:11:49;;;;;;;19.73;10.13;;;;;;;;;;4376396;32;319328;-79
2023/06/16 13:14:18;;;;;;;17.58;10.43;;;;;;;;;;4388389;32;318960;-79
2023/06/16 13:16:46;;;;;;;15.27;11.25;;;;;;;;;;4378354;32;319719;-78
2023/06/16 13:19:13;;;;;;;13.02;11.48;;;;;;;;;;4388307;32;319227;-78
2023/06/16 13:21:40;;;;;;;13.82;11.32;;;;;;;;;;4375695;32;369641;-78
2023/06/16 13:24:08;;;;;;;17.33;11.07;;;;;;;;;;4386329;32;318979;-78
2023/06/16 13:26:35;;;;;;;12.82;11.57;;;;;;;;;;4387255;32;349040;-78
2023/06/16 13:29:03;;;;;;;18.08;10.35;;;;;;;;;;4373553;32;418174;-79
2023/06/16 13:31:32;;;;;;;15.82;12.40;;;;;;;;;;4387732;32;319863;-78
2023/06/16 13:33:59;;;;;;;14.20;12.13;;;;;;;;;;4377622;32;319010;-79
2023/06/16 13:36:27;;;;;;;19.05;17.12;;;;;;;;;;4386587;32;319484;-80
2023/06/16 13:38:55;;;;;;;16.25;13.35;;;;;;;;;;4377024;32;318890;-84
2023/06/16 13:41:25;;;;;;;18.42;12.85;;;;;;;;;;4387770;32;319561;-85
2023/06/16 13:43:53;;;;;;;14.70;11.30;;;;;;;;;;4378188;32;318851;-84
2023/06/16 13:46:20;;;;;;;17.58;11.95;;;;;;;;;;4388048;32;319036;-84
2023/06/16 13:48:49;;;;;;;15.05;12.70;;;;;;;;;;4376684;32;318990;-84
2023/06/16 13:51:17;;;;;;;18.55;13.10;;;;;;;;;;4386205;32;319005;-84
2023/06/16 13:53:44;;;;;;;20.27;13.10;;;;;;;;;;4377336;32;319107;-84
2023/06/16 13:56:12;;;;;;;15.70;14.02;;;;;;;;;;4386188;32;320055;-85
2023/06/16 13:58:39;;;;;;;14.52;13.00;;;;;;;;;;4377789;32;319161;-84
2023/06/16 14:01:07;;;;;;;15.32;11.63;;;;;;;;;;4386478;32;319257;-84
2023/06/16 14:03:34;;;;;;;13.32;11.95;;;;;;;;;;4387622;32;318997;-84
2023/06/16 14:06:03;;;;;;;14.50;12.60;;;;;;;;;;4373246;32;418410;-84
2023/06/16 14:08:30;;;;;;;14.55;12.98;;;;;;;;;;4386500;32;349436;-84
2023/06/16 14:10:58;;;;;;;16.00;13.57;;;;;;;;;;4375290;32;318966;-83
2023/06/16 14:13:25;;;;;;;16.95;13.32;;;;;;;;;;4387176;32;319287;-83
2023/06/16 14:15:53;;;;;;;16.10;13.10;;;;;;;;;;4375924;32;340620;-83
2023/06/16 14:18:20;;;;;;;16.12;13.93;;;;;;;;;;4387274;32;318881;-81
2023/06/16 14:20:47;;;;;;;16.73;13.75;;;;;;;;;;4376285;32;319180;-86
2023/06/16 14:23:16;;;;;;;18.87;14.10;;;;;;;;;;4385286;32;340759;-86
2023/06/16 14:25:44;;;;;;;16.40;13.65;;;;;;;;;;4379504;32;319067;-86
2023/06/16 14:28:13;;;;;;;16.85;12.70;;;;;;;;;;4389957;32;318875;-82
2023/06/16 14:30:40;;;;;;;18.52;12.68;;;;;;;;;;4376083;32;318808;-78
2023/06/16 14:33:08;;;;;;;19.45;14.07;;;;;;;;;;4389327;32;328548;-75
2023/06/16 14:35:36;;;;;;;14.50;12.98;;;;;;;;;;4388367;32;319319;-77